Time;durP1;ratioP1;P1;durP2;ratioP2;P2;SDS_P1;SDS_P2;PMS_P1;PMS_P2;Temp;Humidity;BMP_temperature;BMP_pressure;BME280_temperature;BME280_humidity;BME280_pressure;Samples;Min_cycle;Max_cycle;Signal;HPM_P1;HPM_P2
2022/11/24 00:01:21;;;;;;;;;;;;;;;8.34;77.18;97588.53;7386543;19;20231;-75
2022/11/24 00:03:55;;;;;;;;;;;;;;;8.29;77.18;97593.50;7387804;19;19947;-75
2022/11/24 00:06:22;;;;;;;;;;;;;;;8.21;76.72;97588.19;7383791;19;19923;-75
2022/11/24 00:08:48;;;;;;;;;;;;;;;8.15;77.17;97588.84;7388264;19;19940;-75
2022/11/24 00:11:17;;;;;;;;;;;;;;;8.13;77.10;97594.25;7385454;19;19922;-75
2022/11/24 00:13:43;;;;;;;;;;;;;;;8.03;77.27;97590.09;7384006;19;19914;-74
2022/11/24 00:16:23;;;;;;;;;;;;;;;8.12;77.20;97592.59;7385090;19;19937;-75
2022/11/24 00:18:51;;;;;;;;;;;;;;;7.96;77.06;97597.81;7385615;19;19926;-75
2022/11/24 00:21:18;;;;;;;;;;;;;;;7.88;76.99;97601.25;7383792;19;20348;-75
2022/11/24 00:23:45;;;;;;;;;;;;;;;7.76;77.45;97610.38;7387898;19;19910;-75
2022/11/24 00:26:15;;;;;;;;;;;;;;;7.94;77.34;97612.13;7384585;19;19918;-75
2022/11/24 00:28:43;;;;;;;;;;;;;;;8.12;76.99;97611.06;7388696;19;19919;-75
2022/11/24 00:31:20;;;;;;;;;;;;;;;8.18;76.93;97612.22;7384268;19;19944;-75
2022/11/24 00:33:47;;;;;;;;;;;;;;;8.23;76.62;97606.47;7389480;19;19923;-75
2022/11/24 00:36:13;;;;;;;;;;;;;;;8.22;76.62;97605.66;7385848;19;19931;-75
2022/11/24 00:38:40;;;;;;;;;;;;;;;8.22;76.61;97608.28;7390375;19;19918;-75
2022/11/24 00:41:07;;;;;;;;;;;;;;;8.09;76.75;97618.47;7384628;19;19944;-75
2022/11/24 00:43:33;;;;;;;;;;;;;;;8.15;76.87;97617.81;7387370;19;19986;-75
2022/11/24 00:46:00;;;;;;;;;;;;;;;8.21;76.93;97621.63;7383623;19;19918;-75
2022/11/24 00:48:27;;;;;;;;;;;;;;;8.26;77.14;97624.59;7389706;19;19944;-74
2022/11/24 00:50:54;;;;;;;;;;;;;;;8.09;76.46;97629.00;7386359;19;20252;-74
2022/11/24 00:53:21;;;;;;;;;;;;;;;8.24;76.24;97630.06;7382436;19;19985;-74
2022/11/24 00:55:48;;;;;;;;;;;;;;;8.33;76.64;97623.00;7385219;19;19914;-74
2022/11/24 00:58:15;;;;;;;;;;;;;;;8.39;76.46;97632.91;7387426;19;19936;-74
2022/11/24 01:00:42;;;;;;;;;;;;;;;8.36;76.42;97634.03;7386878;19;19919;-74
2022/11/24 01:03:08;;;;;;;;;;;;;;;8.42;76.45;97637.03;7386627;19;19922;-74
2022/11/24 01:05:35;;;;;;;;;;;;;;;8.40;76.19;97641.63;7384527;19;20068;-74
2022/11/24 01:08:01;;;;;;;;;;;;;;;8.26;76.41;97648.31;7389100;19;19947;-75
2022/11/24 01:10:28;;;;;;;;;;;;;;;8.21;77.04;97651.41;7385925;19;20359;-75
2022/11/24 01:12:54;;;;;;;;;;;;;;;8.21;76.90;97647.97;7386677;19;19919;-74
2022/11/24 01:15:21;;;;;;;;;;;;;;;8.12;76.75;97641.84;7380060;19;19964;-75
2022/11/24 01:17:48;;;;;;;;;;;;;;;8.03;77.07;97653.31;7385825;19;19919;-74
2022/11/24 01:20:14;;;;;;;;;;;;;;;8.10;76.92;97654.34;7383315;19;20576;-74
2022/11/24 01:22:41;;;;;;;;;;;;;;;8.02;77.20;97657.75;7386353;19;19948;-75
2022/11/24 01:25:08;;;;;;;;;;;;;;;8.00;77.06;97656.25;7384578;19;19931;-74
2022/11/24 01:27:35;;;;;;;;;;;;;;;8.00;76.63;97665.00;7383398;19;19915;-74
2022/11/24 01:30:02;;;;;;;;;;;;;;;7.87;77.02;97667.22;7384702;19;20035;-74
2022/11/24 01:32:28;;;;;;;;;;;;;;;7.88;77.09;97661.81;7384007;19;19927;-75
2022/11/24 01:34:55;;;;;;;;;;;;;;;7.79;76.93;97660.09;7382664;19;20272;-75
2022/11/24 01:37:21;;;;;;;;;;;;;;;7.68;77.43;97674.34;7384595;19;19923;-75
2022/11/24 01:39:48;;;;;;;;;;;;;;;7.76;77.03;97680.66;7384642;19;19927;-74
2022/11/24 01:42:14;;;;;;;;;;;;;;;7.84;77.41;97676.25;7386332;19;19919;-75
2022/11/24 01:44:41;;;;;;;;;;;;;;;7.78;77.62;97674.25;7383369;19;19922;-75
2022/11/24 01:47:11;;;;;;;;;;;;;;;7.84;77.35;97673.63;7383203;19;19947;-75
2022/11/24 01:49:41;;;;;;;;;;;;;;;7.84;77.60;97667.53;7380887;19;19923;-74
2022/11/24 01:52:15;;;;;;;;;;;;;;;8.01;77.17;97665.84;7384271;19;19915;-75
2022/11/24 01:54:42;;;;;;;;;;;;;;;8.06;77.22;97674.91;7383665;19;19923;-75
2022/11/24 01:57:12;;;;;;;;;;;;;;;8.00;77.41;97672.06;7385129;19;19927;-74
2022/11/24 01:59:38;;;;;;;;;;;;;;;7.95;77.81;97680.44;7385067;19;19931;-75
2022/11/24 02:02:05;;;;;;;;;;;;;;;8.06;77.91;97674.91;7383637;19;20012;-75
2022/11/24 02:04:31;;;;;;;;;;;;;;;8.14;77.71;97679.41;7380030;19;19970;-75
2022/11/24 02:06:58;;;;;;;;;;;;;;;8.23;77.60;97685.53;7381713;19;20444;-75
2022/11/24 02:09:27;;;;;;;;;;;;;;;8.12;77.85;97682.19;7381144;19;19940;-75
2022/11/24 02:11:54;;;;;;;;;;;;;;;8.23;77.58;97686.34;7381021;19;20336;-75
2022/11/24 02:14:21;;;;;;;;;;;;;;;8.18;77.72;97691.25;7384389;19;19919;-75
2022/11/24 02:16:48;;;;;;;;;;;;;;;8.24;77.04;97688.03;7385113;19;19990;-75
2022/11/24 02:19:27;;;;;;;;;;;;;;;8.40;77.19;97697.84;7388513;19;20531;-75
2022/11/24 02:21:54;;;;;;;;;;;;;;;8.22;77.43;97703.16;7388863;19;19923;-74
2022/11/24 02:24:23;;;;;;;;;;;;;;;8.34;77.52;97690.50;7391683;19;19939;-75
2022/11/24 02:26:51;;;;;;;;;;;;;;;8.42;77.33;97697.66;7389246;19;19958;-75
2022/11/24 02:29:19;;;;;;;;;;;;;;;8.51;76.95;97696.72;7392344;19;19952;-75
2022/11/24 02:31:50;;;;;;;;;;;;;;;8.46;76.53;97696.38;7393398;19;19925;-75
2022/11/24 02:34:16;;;;;;;;;;;;;;;8.43;76.58;97707.25;7391839;19;19983;-75
2022/11/24 02:36:43;;;;;;;;;;;;;;;8.47;76.82;97708.56;7394038;19;20351;-75
2022/11/24 02:39:11;;;;;;;;;;;;;;;8.52;76.55;97711.53;7389718;19;19915;-75
2022/11/24 02:41:39;;;;;;;;;;;;;;;8.50;76.45;97716.16;7390413;19;20600;-75
2022/11/24 02:44:05;;;;;;;;;;;;;;;8.36;76.73;97710.47;7387876;19;20403;-75
2022/11/24 02:46:32;;;;;;;;;;;;;;;8.28;77.07;97706.97;7393242;19;19935;-75
2022/11/24 02:48:59;;;;;;;;;;;;;;;8.21;77.23;97712.03;7390625;19;19952;-76
2022/11/24 02:51:25;;;;;;;;;;;;;;;8.26;77.11;97701.84;7393313;19;19922;-76
2022/11/24 02:53:52;;;;;;;;;;;;;;;8.26;76.90;97699.22;7388921;19;20249;-76
2022/11/24 02:56:19;;;;;;;;;;;;;;;8.12;76.75;97699.81;7386167;19;19918;-77
2022/11/24 02:58:45;;;;;;;;;;;;;;;8.04;76.69;97715.56;7388382;19;19919;-76
2022/11/24 03:01:12;;;;;;;;;;;;;;;7.98;76.75;97710.91;7385192;19;19953;-75
2022/11/24 03:03:38;;;;;;;;;;;;;;;7.80;76.88;97719.69;7389350;19;19995;-76
2022/11/24 03:06:05;;;;;;;;;;;;;;;7.69;77.05;97719.97;7383086;19;20277;-77
2022/11/24 03:08:31;;;;;;;;;;;;;;;7.55;77.03;97721.31;7386094;19;19949;-75
2022/11/24 03:10:58;;;;;;;;;;;;;;;7.53;77.20;97725.06;7383186;19;20526;-75
2022/11/24 03:13:24;;;;;;;;;;;;;;;7.37;77.54;97731.03;7387965;19;19927;-75
2022/11/24 03:15:51;;;;;;;;;;;;;;;7.42;77.75;97732.22;7387160;19;19948;-75
2022/11/24 03:18:17;;;;;;;;;;;;;;;7.52;77.63;97733.97;7388784;19;20332;-75
2022/11/24 03:20:44;;;;;;;;;;;;;;;7.69;77.45;97733.94;7387000;19;19943;-75
2022/11/24 03:23:11;;;;;;;;;;;;;;;7.69;78.12;97736.56;7390184;19;19926;-75
2022/11/24 03:25:38;;;;;;;;;;;;;;;7.90;77.89;97732.78;7387330;19;19944;-74
2022/11/24 03:28:05;;;;;;;;;;;;;;;7.93;77.90;97736.91;7392280;19;20343;-75
2022/11/24 03:30:32;;;;;;;;;;;;;;;8.02;77.74;97743.88;7388274;19;19926;-75
2022/11/24 03:32:58;;;;;;;;;;;;;;;8.09;77.46;97743.09;7386247;19;19922;-74
2022/11/24 03:35:25;;;;;;;;;;;;;;;8.12;77.25;97747.22;7384665;19;20294;-75
2022/11/24 03:37:51;;;;;;;;;;;;;;;7.98;77.47;97742.50;7390271;19;19954;-75
2022/11/24 03:40:18;;;;;;;;;;;;;;;7.91;77.82;97750.22;7389783;19;19923;-75
2022/11/24 03:42:44;;;;;;;;;;;;;;;7.96;77.70;97745.31;7386731;19;20501;-75
2022/11/24 03:45:11;;;;;;;;;;;;;;;7.97;77.83;97746.97;7385649;19;19926;-74
2022/11/24 03:47:58;;;;;;;;;;;;;;;8.05;77.80;97754.09;7392605;19;19915;-75
2022/11/24 03:50:24;;;;;;;;;;;;;;;8.13;77.88;97762.03;7387403;19;19931;-74
2022/11/24 03:52:51;;;;;;;;;;;;;;;8.12;77.95;97765.66;7391729;19;19930;-74
2022/11/24 03:55:17;;;;;;;;;;;;;;;8.15;77.64;97762.72;7391573;19;20637;-75
2022/11/24 03:57:44;;;;;;;;;;;;;;;8.23;77.84;97770.69;7393083;19;19915;-75
2022/11/24 04:00:11;;;;;;;;;;;;;;;8.14;77.68;97761.91;7388494;19;20250;-76
2022/11/24 04:02:37;;;;;;;;;;;;;;;8.17;77.77;97766.03;7389218;19;19923;-75
2022/11/24 04:05:04;;;;;;;;;;;;;;;8.22;77.65;97761.13;7390164;19;19919;-74
2022/11/24 04:07:32;;;;;;;;;;;;;;;8.26;77.76;97767.72;7384784;19;19923;-74
2022/11/24 04:09:58;;;;;;;;;;;;;;;8.32;77.61;97771.53;7389462;19;19963;-74
2022/11/24 04:12:43;;;;;;;;;;;;;;;8.43;77.11;97773.97;7391981;19;19930;-74
2022/11/24 04:15:14;;;;;;;;;;;;;;;8.40;77.28;97774.28;7385472;19;19956;-74
2022/11/24 04:17:41;;;;;;;;;;;;;;;8.43;77.16;97783.69;7388525;19;19926;-74
2022/11/24 04:20:08;;;;;;;;;;;;;;;8.38;77.27;97775.38;7386901;19;20021;-75
2022/11/24 04:22:35;;;;;;;;;;;;;;;8.34;77.31;97782.75;7390424;19;19932;-74
2022/11/24 04:25:01;;;;;;;;;;;;;;;8.27;77.46;97784.38;7389697;19;19923;-74
2022/11/24 04:27:29;;;;;;;;;;;;;;;8.39;77.37;97783.16;7392832;19;20281;-74
2022/11/24 04:29:55;;;;;;;;;;;;;;;8.46;77.18;97788.63;7391657;19;19927;-74
2022/11/24 04:32:22;;;;;;;;;;;;;;;8.47;77.06;97785.00;7394178;19;19948;-74
2022/11/24 04:34:49;;;;;;;;;;;;;;;8.44;77.20;97787.97;7385656;19;19926;-75
2022/11/24 04:37:15;;;;;;;;;;;;;;;8.47;77.04;97795.56;7387255;19;19923;-75
2022/11/24 04:39:42;;;;;;;;;;;;;;;8.44;77.22;97790.59;7388066;19;20527;-75
2022/11/24 04:42:09;;;;;;;;;;;;;;;8.40;77.52;97798.00;7387924;19;19915;-75
2022/11/24 04:44:35;;;;;;;;;;;;;;;8.33;77.20;97803.03;7390696;19;19919;-75
2022/11/24 04:47:03;;;;;;;;;;;;;;;8.43;77.42;97799.50;7394114;19;19975;-75
2022/11/24 04:49:29;;;;;;;;;;;;;;;8.43;77.13;97802.13;7391392;19;19922;-74
2022/11/24 04:51:56;;;;;;;;;;;;;;;8.46;76.97;97796.53;7391456;19;19927;-74
2022/11/24 04:54:22;;;;;;;;;;;;;;;8.34;77.08;97802.03;7390245;19;19939;-74
2022/11/24 04:56:50;;;;;;;;;;;;;;;8.35;77.28;97797.59;7389312;19;19911;-74
2022/11/24 04:59:16;;;;;;;;;;;;;;;8.35;76.83;97800.25;7388326;19;19923;-74
2022/11/24 05:01:44;;;;;;;;;;;;;;;8.36;76.54;97800.06;7387993;19;20209;-74
2022/11/24 05:04:11;;;;;;;;;;;;;;;8.26;76.85;97799.34;7391972;19;19978;-74
2022/11/24 05:06:38;;;;;;;;;;;;;;;8.31;76.57;97798.88;7387193;19;19918;-74
2022/11/24 05:09:07;;;;;;;;;;;;;;;8.26;76.72;97801.97;7386946;19;19926;-74
2022/11/24 05:11:33;;;;;;;;;;;;;;;8.22;76.96;97803.28;7388237;19;19993;-74
2022/11/24 05:14:00;;;;;;;;;;;;;;;8.16;76.88;97814.44;7382833;19;19919;-75
2022/11/24 05:16:27;;;;;;;;;;;;;;;8.09;76.68;97808.13;7382859;19;19956;-75
2022/11/24 05:18:54;;;;;;;;;;;;;;;8.14;76.77;97814.59;7388865;19;19967;-75
2022/11/24 05:21:20;;;;;;;;;;;;;;;8.16;76.93;97818.88;7385279;19;19957;-75
2022/11/24 05:23:47;;;;;;;;;;;;;;;8.15;76.41;97828.59;7383893;19;19922;-75
2022/11/24 05:26:13;;;;;;;;;;;;;;;8.27;76.84;97822.09;7383255;19;19922;-75
2022/11/24 05:28:40;;;;;;;;;;;;;;;8.29;76.61;97822.78;7386294;19;19919;-74
2022/11/24 05:31:06;;;;;;;;;;;;;;;8.33;76.47;97829.38;7380899;19;20305;-74
2022/11/24 05:33:33;;;;;;;;;;;;;;;8.30;75.52;97832.31;7384153;19;19930;-75
2022/11/24 05:36:01;;;;;;;;;;;;;;;8.39;76.31;97835.00;7384822;19;19948;-74
2022/11/24 05:38:29;;;;;;;;;;;;;;;8.33;76.25;97836.47;7383091;19;19934;-75
2022/11/24 05:41:02;;;;;;;;;;;;;;;8.30;76.19;97831.50;7380828;19;19926;-75
2022/11/24 05:43:29;;;;;;;;;;;;;;;8.29;75.93;97838.59;7384721;19;20391;-74
2022/11/24 05:45:59;;;;;;;;;;;;;;;8.32;76.11;97834.78;7382606;19;19922;-75
2022/11/24 05:48:25;;;;;;;;;;;;;;;8.37;75.97;97837.78;7382457;19;20366;-75
2022/11/24 05:50:55;;;;;;;;;;;;;;;8.41;75.79;97838.34;7384329;19;19940;-75
2022/11/24 05:53:23;;;;;;;;;;;;;;;8.45;75.48;97832.63;7388643;19;19918;-75
2022/11/24 05:55:49;;;;;;;;;;;;;;;8.33;75.90;97831.19;7390502;19;19922;-75
2022/11/24 05:58:16;;;;;;;;;;;;;;;8.27;75.64;97824.72;7389494;19;20251;-74
2022/11/24 06:00:43;;;;;;;;;;;;;;;8.18;76.09;97836.19;7386730;19;19922;-74
2022/11/24 06:03:09;;;;;;;;;;;;;;;8.34;75.88;97835.47;7387401;19;19914;-74
2022/11/24 06:05:36;;;;;;;;;;;;;;;8.18;75.57;97830.09;7389095;19;19918;-75
2022/11/24 06:08:03;;;;;;;;;;;;;;;8.18;75.73;97830.91;7389543;19;19943;-74
2022/11/24 06:10:30;;;;;;;;;;;;;;;8.07;75.93;97826.72;7391771;19;19922;-75
2022/11/24 06:12:56;;;;;;;;;;;;;;;8.08;75.78;97831.03;7394213;19;19922;-75
2022/11/24 06:15:23;;;;;;;;;;;;;;;8.08;75.69;97833.66;7388037;19;19915;-74
2022/11/24 06:17:55;;;;;;;;;;;;;;;8.07;76.07;97841.72;7389605;19;19919;-74
2022/11/24 06:20:23;;;;;;;;;;;;;;;8.06;75.11;97840.06;7378401;19;19944;-75
2022/11/24 06:22:57;;;;;;;;;;;;;;;8.28;75.39;97839.56;7381253;19;19930;-74
2022/11/24 06:25:25;;;;;;;;;;;;;;;8.22;75.25;97842.81;7389800;19;20432;-75
2022/11/24 06:27:51;;;;;;;;;;;;;;;8.23;75.24;97855.00;7385913;19;19930;-75
2022/11/24 06:30:18;;;;;;;;;;;;;;;8.28;75.57;97847.47;7390198;19;19962;-74
2022/11/24 06:32:45;;;;;;;;;;;;;;;8.33;75.46;97847.81;7389675;19;23099;-74
2022/11/24 06:35:15;;;;;;;;;;;;;;;8.35;74.62;97853.78;7390966;19;19915;-74
2022/11/24 06:37:42;;;;;;;;;;;;;;;8.40;75.21;97857.78;7389439;19;19923;-74
2022/11/24 06:40:09;;;;;;;;;;;;;;;8.46;75.25;97852.72;7391685;19;19934;-74
2022/11/24 06:42:36;;;;;;;;;;;;;;;8.47;75.12;97859.63;7394360;19;19919;-74
2022/11/24 06:45:02;;;;;;;;;;;;;;;8.53;75.69;97861.69;7395279;19;19948;-74
2022/11/24 06:47:34;;;;;;;;;;;;;;;8.43;74.92;97870.66;7392818;19;19918;-75
2022/11/24 06:50:01;;;;;;;;;;;;;;;8.48;75.07;97871.84;7389298;19;20534;-74
2022/11/24 06:52:27;;;;;;;;;;;;;;;8.56;75.17;97861.34;7392109;19;19952;-75
2022/11/24 06:54:54;;;;;;;;;;;;;;;8.61;75.02;97867.97;7390368;19;20281;-75
2022/11/24 06:57:20;;;;;;;;;;;;;;;8.64;75.08;97871.13;7392934;19;19923;-75
2022/11/24 06:59:47;;;;;;;;;;;;;;;8.56;74.27;97873.72;7392863;19;19926;-75
2022/11/24 07:02:14;;;;;;;;;;;;;;;8.86;74.44;97875.03;7389565;19;19940;-75
2022/11/24 07:04:40;;;;;;;;;;;;;;;8.76;74.68;97875.13;7390282;19;20294;-75
2022/11/24 07:07:07;;;;;;;;;;;;;;;8.74;74.80;97877.13;7388502;19;19911;-74
2022/11/24 07:09:33;;;;;;;;;;;;;;;8.68;74.55;97882.19;7391641;19;19984;-74
2022/11/24 07:12:01;;;;;;;;;;;;;;;8.66;75.22;97887.63;7390680;19;19923;-74
2022/11/24 07:14:27;;;;;;;;;;;;;;;8.57;74.67;97896.47;7391959;19;20038;-74
2022/11/24 07:16:54;;;;;;;;;;;;;;;8.69;75.37;97900.50;7392777;19;20259;-74
2022/11/24 07:19:21;;;;;;;;;;;;;;;8.58;75.70;97903.38;7392298;19;20347;-75
2022/11/24 07:21:50;;;;;;;;;;;;;;;8.52;76.40;97906.63;7390112;19;19978;-75
2022/11/24 07:24:17;;;;;;;;;;;;;;;8.46;76.16;97915.16;7391164;19;20271;-75
2022/11/24 07:26:44;;;;;;;;;;;;;;;8.53;76.68;97921.47;7389741;19;19922;-75
2022/11/24 07:29:10;;;;;;;;;;;;;;;8.57;76.33;97928.91;7391745;19;19918;-74
2022/11/24 07:31:37;;;;;;;;;;;;;;;8.70;76.11;97932.97;7392730;19;20273;-75
2022/11/24 07:34:04;;;;;;;;;;;;;;;8.74;76.21;97940.44;7390041;19;19918;-74
2022/11/24 07:36:30;;;;;;;;;;;;;;;8.70;76.65;97943.53;7390911;19;19929;-75
2022/11/24 07:38:57;;;;;;;;;;;;;;;8.70;76.79;97951.44;7390193;19;20339;-75
2022/11/24 07:41:24;;;;;;;;;;;;;;;8.75;76.88;97957.06;7387564;19;19952;-74
2022/11/24 07:43:50;;;;;;;;;;;;;;;8.68;76.87;97961.31;7389199;19;20308;-74
2022/11/24 07:46:18;;;;;;;;;;;;;;;8.74;77.02;97965.94;7384710;19;19915;-74
2022/11/24 07:48:45;;;;;;;;;;;;;;;8.67;77.17;97971.03;7388836;19;19982;-75
2022/11/24 07:51:11;;;;;;;;;;;;;;;8.69;77.66;97974.34;7387377;19;20277;-75
2022/11/24 07:53:38;;;;;;;;;;;;;;;8.72;77.67;97979.31;7389381;19;20236;-75
2022/11/24 07:56:05;;;;;;;;;;;;;;;8.69;77.31;97984.88;7385052;19;19960;-74
2022/11/24 07:58:33;;;;;;;;;;;;;;;8.63;77.31;97985.47;7388997;19;19918;-75
2022/11/24 08:01:09;;;;;;;;;;;;;;;8.77;77.73;97997.31;7384728;19;22400;-75
2022/11/24 08:03:35;;;;;;;;;;;;;;;8.83;77.47;97996.69;7384471;19;19918;-75
2022/11/24 08:06:02;;;;;;;;;;;;;;;8.76;77.81;97995.63;7388105;19;20016;-74
2022/11/24 08:08:49;;;;;;;;;;;;;;;8.58;77.95;97985.09;7387814;19;19950;-74
2022/11/24 08:11:16;;;;;;;;;;;;;;;8.67;78.02;97959.66;7385160;19;19931;-75
2022/11/24 08:13:43;;;;;;;;;;;;;;;8.51;78.09;97965.63;7385686;19;20282;-74
2022/11/24 08:16:11;;;;;;;;;;;;;;;8.65;78.46;97972.16;7387096;19;20370;-74
2022/11/24 08:18:38;;;;;;;;;;;;;;;8.69;78.48;97982.25;7387507;19;19987;-74
2022/11/24 08:21:05;;;;;;;;;;;;;;;8.85;78.17;97989.47;7385852;19;20270;-74
2022/11/24 08:23:32;;;;;;;;;;;;;;;8.81;78.24;97989.91;7387753;19;19919;-74
2022/11/24 08:26:03;;;;;;;;;;;;;;;8.70;78.17;97989.19;7388449;19;19919;-74
2022/11/24 08:28:30;;;;;;;;;;;;;;;8.81;78.05;97988.09;7385587;19;19990;-74
2022/11/24 08:31:04;;;;;;;;;;;;;;;8.70;78.13;97988.34;7384296;19;19963;-74
2022/11/24 08:33:31;;;;;;;;;;;;;;;8.78;78.09;97993.69;7383631;19;19918;-74
2022/11/24 08:36:04;;;;;;;;;;;;;;;8.62;78.03;97994.38;7382956;19;19919;-74
2022/11/24 08:38:31;;;;;;;;;;;;;;;9.01;77.53;97994.84;7389353;19;20236;-74
2022/11/24 08:41:05;;;;;;;;;;;;;;;9.09;77.85;97994.06;7384760;19;19923;-74
2022/11/24 08:43:32;;;;;;;;;;;;;;;9.17;77.57;98003.84;7388571;19;19923;-74
2022/11/24 08:45:59;;;;;;;;;;;;;;;9.11;77.94;98004.44;7384237;19;19915;-74
2022/11/24 08:48:26;;;;;;;;;;;;;;;9.10;77.14;97995.72;7388397;19;20694;-74
2022/11/24 08:50:53;;;;;;;;;;;;;;;9.09;77.44;98009.91;7383695;19;19922;-74
2022/11/24 08:53:20;;;;;;;;;;;;;;;9.12;77.46;98019.31;7387053;19;19923;-75
2022/11/24 08:55:46;;;;;;;;;;;;;;;9.13;77.58;98024.41;7386979;19;20321;-74
2022/11/24 08:58:13;;;;;;;;;;;;;;;9.08;77.34;98025.88;7387234;19;19954;-74
2022/11/24 09:00:40;;;;;;;;;;;;;;;9.16;77.59;98032.06;7383475;19;19948;-74
2022/11/24 09:03:08;;;;;;;;;;;;;;;9.15;77.21;98033.03;7384151;19;20366;-74
2022/11/24 09:05:35;;;;;;;;;;;;;;;9.26;77.27;98029.28;7381988;19;20210;-74
2022/11/24 09:08:17;;;;;;;;;;;;;;;9.16;77.16;98028.56;7383591;19;19934;-74
2022/11/24 09:10:44;;;;;;;;;;;;;;;9.20;77.20;98036.03;7384531;19;19953;-75
2022/11/24 09:13:10;;;;;;;;;;;;;;;9.11;76.61;98031.69;7385472;19;19944;-74
2022/11/24 09:15:37;;;;;;;;;;;;;;;9.26;76.78;98023.19;7382159;19;19949;-74
2022/11/24 09:18:04;;;;;;;;;;;;;;;9.18;76.82;98032.69;7386467;19;19915;-75
2022/11/24 09:20:31;;;;;;;;;;;;;;;9.17;76.83;98046.06;7382595;19;19914;-74
2022/11/24 09:22:57;;;;;;;;;;;;;;;9.25;76.74;98037.38;7385547;19;19923;-74
2022/11/24 09:25:24;;;;;;;;;;;;;;;9.33;76.54;98037.44;7389043;19;19923;-74
2022/11/24 09:27:50;;;;;;;;;;;;;;;9.25;76.19;98032.94;7387518;19;19919;-74
2022/11/24 09:30:17;;;;;;;;;;;;;;;9.37;76.56;98042.25;7388698;19;20666;-74
2022/11/24 09:32:43;;;;;;;;;;;;;;;9.21;75.99;98042.13;7390883;19;19926;-74
2022/11/24 09:35:10;;;;;;;;;;;;;;;9.25;76.41;98053.22;7387330;19;19948;-74
2022/11/24 09:37:37;;;;;;;;;;;;;;;9.29;76.00;98065.09;7387242;19;20260;-74
2022/11/24 09:40:03;;;;;;;;;;;;;;;9.47;75.79;98072.97;7383828;19;20075;-74
2022/11/24 09:42:45;;;;;;;;;;;;;;;9.13;74.67;98077.19;7385443;19;19919;-74
2022/11/24 09:45:26;;;;;;;;;;;;;;;9.25;75.21;98076.97;7385602;19;19927;-74
2022/11/24 09:48:19;;;;;;;;;;;;;;;9.22;74.97;98063.09;7385276;19;20328;-74
2022/11/24 09:50:45;;;;;;;;;;;;;;;9.32;74.72;98078.00;7389012;19;20223;-74
2022/11/24 09:53:12;;;;;;;;;;;;;;;9.43;75.60;98080.41;7386500;19;19944;-74
2022/11/24 09:55:45;;;;;;;;;;;;;;;9.52;75.04;98087.38;7388174;19;19915;-74
2022/11/24 09:58:31;;;;;;;;;;;;;;;9.45;75.56;98086.31;7385614;19;20288;-74
2022/11/24 10:00:59;;;;;;;;;;;;;;;9.58;75.23;98096.47;7387365;19;20374;-74
2022/11/24 10:03:28;;;;;;;;;;;;;;;9.57;74.98;98100.94;7386336;19;19939;-74
2022/11/24 10:05:55;;;;;;;;;;;;;;;9.81;74.78;98096.78;7382193;19;19941;-74
2022/11/24 10:08:25;;;;;;;;;;;;;;;9.76;74.69;98094.59;7382579;19;20343;-74
2022/11/24 10:10:57;;;;;;;;;;;;;;;9.75;72.61;98098.25;7381775;19;19940;-74
2022/11/24 10:13:30;;;;;;;;;;;;;;;9.87;74.66;98102.28;7381131;19;19969;-75
2022/11/24 10:16:08;;;;;;;;;;;;;;;9.74;74.48;98101.03;7380878;19;19923;-74
2022/11/24 10:18:37;;;;;;;;;;;;;;;9.90;74.04;98109.06;7385988;19;19948;-74
2022/11/24 10:21:22;;;;;;;;;;;;;;;10.03;73.55;98103.31;7383118;19;19922;-74
2022/11/24 10:23:49;;;;;;;;;;;;;;;10.08;72.54;98104.50;7384417;19;20267;-74
2022/11/24 10:26:27;;;;;;;;;;;;;;;10.23;72.91;98106.53;7381876;19;19933;-75
2022/11/24 10:28:54;;;;;;;;;;;;;;;10.08;71.75;98114.22;7389667;19;19911;-74
2022/11/24 10:31:34;;;;;;;;;;;;;;;10.22;71.19;98115.47;7381017;19;19914;-75
2022/11/24 10:34:21;;;;;;;;;;;;;;;10.18;70.82;98114.13;7382746;19;19922;-75
2022/11/24 10:36:53;;;;;;;;;;;;;;;10.38;71.43;98115.53;7384593;19;19923;-75
2022/11/24 10:39:20;;;;;;;;;;;;;;;10.61;72.07;98121.06;7385358;19;20836;-75
2022/11/24 10:41:47;;;;;;;;;;;;;;;10.38;71.77;98115.53;7388066;19;19923;-74
2022/11/24 10:44:14;;;;;;;;;;;;;;;10.41;72.25;98111.75;7392620;19;19939;-75
2022/11/24 10:46:40;;;;;;;;;;;;;;;10.23;70.95;98117.09;7393410;19;20363;-74
2022/11/24 10:49:09;;;;;;;;;;;;;;;10.11;71.18;98111.28;7391859;19;19943;-74
2022/11/24 10:51:48;;;;;;;;;;;;;;;10.32;71.49;98110.88;7393789;19;19948;-75
2022/11/24 10:54:16;;;;;;;;;;;;;;;10.42;72.37;98106.28;7394601;19;19952;-75
2022/11/24 10:56:43;;;;;;;;;;;;;;;10.47;72.39;98113.75;7394820;19;19927;-75
2022/11/24 10:59:29;;;;;;;;;;;;;;;10.58;72.39;98105.50;7392141;19;19926;-75
2022/11/24 11:01:55;;;;;;;;;;;;;;;10.61;71.68;98099.06;7391022;19;19932;-75
2022/11/24 11:04:29;;;;;;;;;;;;;;;10.80;71.74;98095.31;7386208;19;19929;-75
2022/11/24 11:07:09;;;;;;;;;;;;;;;10.84;71.74;98105.38;7389046;19;19929;-74
2022/11/24 11:09:35;;;;;;;;;;;;;;;10.91;71.60;98105.56;7393291;19;19925;-74
2022/11/24 11:12:18;;;;;;;;;;;;;;;10.72;71.78;98101.41;7389768;19;19956;-75
2022/11/24 11:15:21;;;;;;;;;;;;;;;10.84;71.38;98101.91;7387942;19;19929;-75
2022/11/24 11:17:49;;;;;;;;;;;;;;;11.05;70.51;98099.59;7387456;19;19926;-75
2022/11/24 11:20:16;;;;;;;;;;;;;;;10.94;71.26;98106.03;7388260;19;19922;-75
2022/11/24 11:22:44;;;;;;;;;;;;;;;11.02;71.33;98104.41;7388015;19;19922;-76
2022/11/24 11:25:13;;;;;;;;;;;;;;;10.86;72.06;98102.56;7389616;19;19919;-75
2022/11/24 11:27:40;;;;;;;;;;;;;;;10.65;71.61;98105.69;7387305;19;19962;-74
2022/11/24 11:30:16;;;;;;;;;;;;;;;10.61;72.25;98102.56;7388365;19;19923;-75
2022/11/24 11:33:03;;;;;;;;;;;;;;;10.98;71.93;98091.50;7385557;19;19917;-75
2022/11/24 11:35:49;;;;;;;;;;;;;;;11.28;71.06;98091.81;7388357;19;19907;-75
2022/11/24 11:38:16;;;;;;;;;;;;;;;11.57;70.02;98096.56;7387045;19;19930;-75
2022/11/24 11:40:42;;;;;;;;;;;;;;;11.76;69.54;98092.72;7386554;19;20545;-75
2022/11/24 11:43:25;;;;;;;;;;;;;;;11.71;67.15;98100.34;7386459;19;19923;-75
2022/11/24 11:45:59;;;;;;;;;;;;;;;11.57;67.03;98107.16;7389343;19;19926;-75
2022/11/24 11:48:30;;;;;;;;;;;;;;;11.56;69.30;98104.69;7383570;19;19926;-75
2022/11/24 11:51:10;;;;;;;;;;;;;;;11.45;69.65;98105.03;7379862;19;19925;-75
2022/11/24 11:54:02;;;;;;;;;;;;;;;11.45;69.76;98105.03;7389720;19;20259;-72
2022/11/24 11:56:29;;;;;;;;;;;;;;;11.48;69.25;98110.00;7392467;19;19918;-75
2022/11/24 11:59:08;;;;;;;;;;;;;;;11.56;69.67;98100.22;7392404;19;19922;-76
2022/11/24 12:01:38;;;;;;;;;;;;;;;11.43;70.05;98106.03;7392378;19;19919;-74
2022/11/24 12:04:15;;;;;;;;;;;;;;;11.35;69.72;98121.94;7392683;19;19919;-76
2022/11/24 12:06:48;;;;;;;;;;;;;;;11.10;70.67;98109.69;7385954;19;20568;-76
2022/11/24 12:09:33;;;;;;;;;;;;;;;11.42;70.35;98114.97;7384874;19;19926;-76
2022/11/24 12:12:04;;;;;;;;;;;;;;;11.27;70.17;98115.81;7383722;19;19926;-76
2022/11/24 12:14:36;;;;;;;;;;;;;;;11.23;70.72;98117.97;7385408;19;19923;-76
2022/11/24 12:17:25;;;;;;;;;;;;;;;10.98;70.73;98111.84;7385976;19;19915;-74
2022/11/24 12:20:10;;;;;;;;;;;;;;;11.03;69.76;98119.28;7386819;19;19927;-73
2022/11/24 12:22:55;;;;;;;;;;;;;;;10.93;70.78;98122.94;7390476;19;19936;-76
2022/11/24 12:25:37;;;;;;;;;;;;;;;10.51;70.57;98129.13;7383375;19;19923;-75
2022/11/24 12:28:06;;;;;;;;;;;;;;;10.62;70.18;98129.81;7383256;19;19929;-75
2022/11/24 12:30:37;;;;;;;;;;;;;;;10.98;70.32;98122.44;7363173;19;19950;-77
2022/11/24 12:33:23;;;;;;;;;;;;;;;10.92;69.63;98121.25;7364159;19;19930;-74
2022/11/24 12:35:51;;;;;;;;;;;;;;;10.91;69.38;98127.56;7369911;19;19993;-76
2022/11/24 12:38:18;;;;;;;;;;;;;;;10.90;70.15;98130.34;7380567;19;19926;-74
2022/11/24 12:40:53;;;;;;;;;;;;;;;10.76;68.11;98130.00;7384497;19;19919;-76
2022/11/24 12:43:40;;;;;;;;;;;;;;;10.79;68.69;98134.13;7383180;19;20302;-76
2022/11/24 12:46:18;;;;;;;;;;;;;;;10.65;68.59;98137.44;7382194;19;19919;-76
2022/11/24 12:48:54;;;;;;;;;;;;;;;10.66;68.03;98141.72;7381496;19;19919;-76
2022/11/24 12:51:23;;;;;;;;;;;;;;;10.58;68.95;98152.28;7387882;19;19940;-76
2022/11/24 12:53:50;;;;;;;;;;;;;;;10.24;69.35;98139.91;7387537;19;19959;-76
2022/11/24 12:56:19;;;;;;;;;;;;;;;10.38;69.23;98139.34;7385061;19;19922;-74
2022/11/24 12:58:57;;;;;;;;;;;;;;;10.38;68.80;98144.63;7383638;19;19918;-76
2022/11/24 13:01:28;;;;;;;;;;;;;;;10.31;68.92;98152.38;7379540;19;19943;-76
2022/11/24 13:04:01;;;;;;;;;;;;;;;10.19;69.24;98153.63;7385414;19;19918;-75
2022/11/24 13:06:37;;;;;;;;;;;;;;;10.27;68.78;98152.84;7387063;19;19918;-75